sensor_id;sensor_type;location;lat;lon;timestamp;pressure;altitude;pressure_sealevel;temperature;humidity
72855;BME280;60991;51.278;22.550;2022-11-27T00:01:30;100330.81;;;1.77;76.10
72855;BME280;60991;51.278;22.550;2022-11-27T00:03:01;100326.44;;;1.85;76.09
72855;BME280;60991;51.278;22.550;2022-11-27T00:04:32;100334.63;;;1.90;76.23
72855;BME280;60991;51.278;22.550;2022-11-27T00:06:02;100330.53;;;1.88;75.73
72855;BME280;60991;51.278;22.550;2022-11-27T00:07:32;100332.94;;;1.73;75.81
72855;BME280;60991;51.278;22.550;2022-11-27T00:09:06;100338.41;;;1.54;76.71
72855;BME280;60991;51.278;22.550;2022-11-27T00:10:36;100326.66;;;1.58;76.53
72855;BME280;60991;51.278;22.550;2022-11-27T00:12:06;100331.13;;;1.39;76.98
72855;BME280;60991;51.278;22.550;2022-11-27T00:13:37;100335.41;;;1.49;77.12
72855;BME280;60991;51.278;22.550;2022-11-27T00:15:07;100344.41;;;1.46;77.48
72855;BME280;60991;51.278;22.550;2022-11-27T00:16:38;100346.00;;;1.39;77.82
72855;BME280;60991;51.278;22.550;2022-11-27T00:18:08;100347.66;;;1.40;77.54
72855;BME280;60991;51.278;22.550;2022-11-27T00:19:38;100348.72;;;1.55;77.57
72855;BME280;60991;51.278;22.550;2022-11-27T00:21:27;100349.59;;;1.72;77.33
72855;BME280;60991;51.278;22.550;2022-11-27T00:22:58;100341.91;;;1.70;77.29
72855;BME280;60991;51.278;22.550;2022-11-27T00:24:28;100344.34;;;1.64;76.75
72855;BME280;60991;51.278;22.550;2022-11-27T00:25:59;100347.94;;;1.63;76.92
72855;BME280;60991;51.278;22.550;2022-11-27T00:27:29;100346.69;;;1.75;77.02
72855;BME280;60991;51.278;22.550;2022-11-27T00:29:00;100345.88;;;1.74;76.99
72855;BME280;60991;51.278;22.550;2022-11-27T00:30:30;100353.28;;;1.87;76.42
72855;BME280;60991;51.278;22.550;2022-11-27T00:32:01;100343.50;;;1.97;75.64
72855;BME280;60991;51.278;22.550;2022-11-27T00:33:31;100349.69;;;1.88;76.24
72855;BME280;60991;51.278;22.550;2022-11-27T00:35:02;100348.03;;;1.87;75.82
72855;BME280;60991;51.278;22.550;2022-11-27T00:36:33;100350.94;;;1.76;76.42
72855;BME280;60991;51.278;22.550;2022-11-27T00:38:04;100343.63;;;1.88;75.69
72855;BME280;60991;51.278;22.550;2022-11-27T00:39:34;100354.28;;;1.94;75.58
72855;BME280;60991;51.278;22.550;2022-11-27T00:41:10;100350.50;;;1.89;76.10
72855;BME280;60991;51.278;22.550;2022-11-27T00:42:40;100352.44;;;1.87;75.81
72855;BME280;60991;51.278;22.550;2022-11-27T00:44:13;100354.25;;;1.86;75.15
72855;BME280;60991;51.278;22.550;2022-11-27T00:45:48;100354.09;;;1.88;75.30
72855;BME280;60991;51.278;22.550;2022-11-27T00:47:18;100353.28;;;1.87;75.50
72855;BME280;60991;51.278;22.550;2022-11-27T00:48:48;100351.53;;;1.62;75.75
72855;BME280;60991;51.278;22.550;2022-11-27T00:50:19;100349.22;;;1.59;76.65
72855;BME280;60991;51.278;22.550;2022-11-27T00:51:49;100348.91;;;1.62;76.48
72855;BME280;60991;51.278;22.550;2022-11-27T00:53:20;100346.47;;;1.68;76.52
72855;BME280;60991;51.278;22.550;2022-11-27T00:54:50;100350.66;;;1.87;76.06
72855;BME280;60991;51.278;22.550;2022-11-27T00:56:26;100353.25;;;1.79;76.20
72855;BME280;60991;51.278;22.550;2022-11-27T00:57:57;100349.97;;;1.77;76.20
72855;BME280;60991;51.278;22.550;2022-11-27T00:59:27;100351.00;;;1.84;76.01
72855;BME280;60991;51.278;22.550;2022-11-27T01:01:04;100352.28;;;1.88;75.25
72855;BME280;60991;51.278;22.550;2022-11-27T01:02:35;100352.78;;;1.84;75.36
72855;BME280;60991;51.278;22.550;2022-11-27T01:04:07;100346.53;;;1.77;76.16
72855;BME280;60991;51.278;22.550;2022-11-27T01:05:39;100354.09;;;1.88;75.63
72855;BME280;60991;51.278;22.550;2022-11-27T01:07:10;100353.97;;;1.97;75.56
72855;BME280;60991;51.278;22.550;2022-11-27T01:08:41;100352.53;;;2.03;75.66
72855;BME280;60991;51.278;22.550;2022-11-27T01:10:11;100349.91;;;2.03;75.36
72855;BME280;60991;51.278;22.550;2022-11-27T01:11:42;100347.31;;;2.11;74.95
72855;BME280;60991;51.278;22.550;2022-11-27T01:13:12;100347.13;;;2.04;75.01
72855;BME280;60991;51.278;22.550;2022-11-27T01:14:42;100347.91;;;1.97;75.29
72855;BME280;60991;51.278;22.550;2022-11-27T01:16:15;100350.31;;;1.82;75.49
72855;BME280;60991;51.278;22.550;2022-11-27T01:17:46;100347.97;;;1.71;75.58
72855;BME280;60991;51.278;22.550;2022-11-27T01:19:16;100344.56;;;1.45;76.63
72855;BME280;60991;51.278;22.550;2022-11-27T01:20:51;100341.44;;;1.41;76.58
72855;BME280;60991;51.278;22.550;2022-11-27T01:22:21;100343.09;;;1.42;77.19
72855;BME280;60991;51.278;22.550;2022-11-27T01:23:52;100337.47;;;1.29;77.84
72855;BME280;60991;51.278;22.550;2022-11-27T01:25:22;100338.91;;;1.31;77.39
72855;BME280;60991;51.278;22.550;2022-11-27T01:26:52;100336.66;;;1.36;77.52
72855;BME280;60991;51.278;22.550;2022-11-27T01:28:23;100338.47;;;1.36;77.36
72855;BME280;60991;51.278;22.550;2022-11-27T01:29:53;100344.75;;;1.51;77.16
72855;BME280;60991;51.278;22.550;2022-11-27T01:31:27;100342.41;;;1.66;76.90
72855;BME280;60991;51.278;22.550;2022-11-27T01:32:58;100335.84;;;1.70;76.96
72855;BME280;60991;51.278;22.550;2022-11-27T01:34:28;100341.66;;;1.82;76.21
72855;BME280;60991;51.278;22.550;2022-11-27T01:36:00;100340.03;;;1.89;75.96
72855;BME280;60991;51.278;22.550;2022-11-27T01:37:34;100342.53;;;1.98;75.85
72855;BME280;60991;51.278;22.550;2022-11-27T01:39:04;100342.38;;;2.00;76.23
72855;BME280;60991;51.278;22.550;2022-11-27T01:40:35;100345.16;;;2.06;76.24
72855;BME280;60991;51.278;22.550;2022-11-27T01:42:05;100338.13;;;1.99;75.94
72855;BME280;60991;51.278;22.550;2022-11-27T01:43:45;100340.75;;;2.07;75.73
72855;BME280;60991;51.278;22.550;2022-11-27T01:45:18;100340.91;;;2.05;75.41
72855;BME280;60991;51.278;22.550;2022-11-27T01:48:31;100330.69;;;1.86;75.60
72855;BME280;60991;51.278;22.550;2022-11-27T01:50:16;100338.75;;;1.93;75.87
72855;BME280;60991;51.278;22.550;2022-11-27T01:51:57;100336.47;;;1.98;76.01
72855;BME280;60991;51.278;22.550;2022-11-27T01:53:28;100337.31;;;2.06;75.78
72855;BME280;60991;51.278;22.550;2022-11-27T01:55:06;100339.75;;;2.00;75.79
72855;BME280;60991;51.278;22.550;2022-11-27T01:56:40;100337.13;;;2.00;76.09
72855;BME280;60991;51.278;22.550;2022-11-27T01:58:18;100334.84;;;2.05;75.86
72855;BME280;60991;51.278;22.550;2022-11-27T01:59:50;100341.88;;;2.04;76.09
72855;BME280;60991;51.278;22.550;2022-11-27T02:01:21;100345.81;;;2.08;75.41
72855;BME280;60991;51.278;22.550;2022-11-27T02:02:51;100341.72;;;2.06;75.53
72855;BME280;60991;51.278;22.550;2022-11-27T02:04:21;100340.22;;;1.95;76.40
72855;BME280;60991;51.278;22.550;2022-11-27T02:05:51;100337.75;;;1.94;76.09
72855;BME280;60991;51.278;22.550;2022-11-27T02:07:22;100343.97;;;1.93;75.92
72855;BME280;60991;51.278;22.550;2022-11-27T02:08:53;100342.16;;;1.85;76.34
72855;BME280;60991;51.278;22.550;2022-11-27T02:10:37;100340.00;;;1.81;76.41
72855;BME280;60991;51.278;22.550;2022-11-27T02:18:06;100347.41;;;1.85;77.33
72855;BME280;60991;51.278;22.550;2022-11-27T02:20:06;100345.03;;;1.74;76.99
72855;BME280;60991;51.278;22.550;2022-11-27T02:21:53;100347.88;;;1.81;76.66
72855;BME280;60991;51.278;22.550;2022-11-27T02:23:40;100345.78;;;1.92;76.98
72855;BME280;60991;51.278;22.550;2022-11-27T02:27:43;100351.06;;;2.08;76.32
72855;BME280;60991;51.278;22.550;2022-11-27T02:29:10;100361.25;;;2.20;76.14
72855;BME280;60991;51.278;22.550;2022-11-27T02:30:46;100355.69;;;2.15;76.05
72855;BME280;60991;51.278;22.550;2022-11-27T02:32:36;100352.91;;;2.24;75.97
72855;BME280;60991;51.278;22.550;2022-11-27T02:36:05;100361.63;;;2.33;75.35
72855;BME280;60991;51.278;22.550;2022-11-27T02:39:21;100371.28;;;2.32;75.56
72855;BME280;60991;51.278;22.550;2022-11-27T02:41:03;100367.19;;;2.38;75.01
72855;BME280;60991;51.278;22.550;2022-11-27T02:43:03;100373.75;;;2.42;75.40
72855;BME280;60991;51.278;22.550;2022-11-27T02:44:42;100366.69;;;2.42;74.59
72855;BME280;60991;51.278;22.550;2022-11-27T02:46:16;100374.56;;;2.42;74.23
72855;BME280;60991;51.278;22.550;2022-11-27T02:47:49;100378.66;;;2.45;74.82
72855;BME280;60991;51.278;22.550;2022-11-27T02:49:20;100373.09;;;2.48;75.33
72855;BME280;60991;51.278;22.550;2022-11-27T02:50:53;100370.84;;;2.53;75.41
72855;BME280;60991;51.278;22.550;2022-11-27T02:52:25;100371.19;;;2.58;75.27
72855;BME280;60991;51.278;22.550;2022-11-27T02:54:00;100375.91;;;2.63;75.09
72855;BME280;60991;51.278;22.550;2022-11-27T02:55:33;100379.03;;;2.66;75.26
72855;BME280;60991;51.278;22.550;2022-11-27T02:57:06;100377.91;;;2.69;74.73
72855;BME280;60991;51.278;22.550;2022-11-27T02:58:37;100377.75;;;2.70;74.40
72855;BME280;60991;51.278;22.550;2022-11-27T03:00:10;100375.78;;;2.72;74.44
72855;BME280;60991;51.278;22.550;2022-11-27T03:01:47;100376.91;;;2.70;74.34
72855;BME280;60991;51.278;22.550;2022-11-27T03:03:24;100380.84;;;2.66;74.33
72855;BME280;60991;51.278;22.550;2022-11-27T03:04:57;100379.34;;;2.63;73.95
72855;BME280;60991;51.278;22.550;2022-11-27T03:06:33;100380.50;;;2.61;74.47
72855;BME280;60991;51.278;22.550;2022-11-27T03:08:19;100377.88;;;2.53;74.22
72855;BME280;60991;51.278;22.550;2022-11-27T03:09:56;100378.69;;;2.53;74.42
72855;BME280;60991;51.278;22.550;2022-11-27T03:11:27;100386.41;;;2.55;74.28
72855;BME280;60991;51.278;22.550;2022-11-27T03:12:59;100383.13;;;2.53;74.31
72855;BME280;60991;51.278;22.550;2022-11-27T03:14:33;100384.25;;;2.50;74.74
72855;BME280;60991;51.278;22.550;2022-11-27T03:16:18;100380.63;;;2.43;74.62
72855;BME280;60991;51.278;22.550;2022-11-27T03:17:58;100384.41;;;2.40;75.26
72855;BME280;60991;51.278;22.550;2022-11-27T03:19:53;100387.16;;;2.31;75.71
72855;BME280;60991;51.278;22.550;2022-11-27T03:21:31;100389.47;;;2.34;75.99
72855;BME280;60991;51.278;22.550;2022-11-27T03:23:03;100388.75;;;2.24;75.72
72855;BME280;60991;51.278;22.550;2022-11-27T03:24:34;100390.59;;;1.89;76.21
72855;BME280;60991;51.278;22.550;2022-11-27T03:26:05;100386.66;;;1.85;77.00
72855;BME280;60991;51.278;22.550;2022-11-27T03:27:42;100394.56;;;1.67;77.69
72855;BME280;60991;51.278;22.550;2022-11-27T03:29:17;100388.84;;;1.64;77.42
72855;BME280;60991;51.278;22.550;2022-11-27T03:30:49;100392.16;;;1.74;76.87
72855;BME280;60991;51.278;22.550;2022-11-27T03:32:19;100392.75;;;1.60;77.64
72855;BME280;60991;51.278;22.550;2022-11-27T03:33:49;100395.94;;;1.46;77.60
72855;BME280;60991;51.278;22.550;2022-11-27T03:35:23;100401.88;;;1.56;78.23
72855;BME280;60991;51.278;22.550;2022-11-27T03:36:54;100403.44;;;1.49;78.08
72855;BME280;60991;51.278;22.550;2022-11-27T03:38:24;100395.94;;;1.46;78.20
72855;BME280;60991;51.278;22.550;2022-11-27T03:39:55;100404.44;;;1.48;77.75
72855;BME280;60991;51.278;22.550;2022-11-27T03:41:45;100407.81;;;1.40;78.77
72855;BME280;60991;51.278;22.550;2022-11-27T03:43:25;100408.50;;;1.42;78.64
72855;BME280;60991;51.278;22.550;2022-11-27T03:45:25;100406.63;;;1.60;77.65
72855;BME280;60991;51.278;22.550;2022-11-27T03:49:13;100408.44;;;1.60;77.08
72855;BME280;60991;51.278;22.550;2022-11-27T03:50:58;100413.88;;;1.66;77.26
72855;BME280;60991;51.278;22.550;2022-11-27T03:56:44;100409.97;;;1.45;76.83
72855;BME280;60991;51.278;22.550;2022-11-27T03:58:28;100414.38;;;1.44;77.71
72855;BME280;60991;51.278;22.550;2022-11-27T04:00:06;100414.56;;;1.51;76.94
72855;BME280;60991;51.278;22.550;2022-11-27T04:01:36;100409.25;;;1.60;76.68
72855;BME280;60991;51.278;22.550;2022-11-27T04:03:09;100412.56;;;1.70;76.56
72855;BME280;60991;51.278;22.550;2022-11-27T04:04:40;100422.13;;;1.80;76.19
72855;BME280;60991;51.278;22.550;2022-11-27T04:06:10;100409.22;;;1.86;76.17
72855;BME280;60991;51.278;22.550;2022-11-27T04:07:41;100406.56;;;1.78;76.24
72855;BME280;60991;51.278;22.550;2022-11-27T04:09:11;100410.09;;;1.69;75.57
72855;BME280;60991;51.278;22.550;2022-11-27T04:10:41;100413.16;;;1.56;75.25
72855;BME280;60991;51.278;22.550;2022-11-27T04:12:12;100416.97;;;1.62;75.62
72855;BME280;60991;51.278;22.550;2022-11-27T04:13:42;100416.06;;;1.79;75.18
72855;BME280;60991;51.278;22.550;2022-11-27T04:15:12;100408.00;;;1.72;75.31
72855;BME280;60991;51.278;22.550;2022-11-27T04:16:43;100412.41;;;1.72;75.13
72855;BME280;60991;51.278;22.550;2022-11-27T04:18:13;100410.69;;;1.81;74.98
72855;BME280;60991;51.278;22.550;2022-11-27T04:19:43;100408.25;;;1.87;74.96
72855;BME280;60991;51.278;22.550;2022-11-27T04:21:13;100409.72;;;1.90;75.22
72855;BME280;60991;51.278;22.550;2022-11-27T04:22:44;100418.47;;;1.98;75.18
72855;BME280;60991;51.278;22.550;2022-11-27T04:24:14;100411.44;;;1.99;75.24
72855;BME280;60991;51.278;22.550;2022-11-27T04:25:44;100418.47;;;2.06;74.46
72855;BME280;60991;51.278;22.550;2022-11-27T04:27:15;100418.03;;;2.11;74.28
72855;BME280;60991;51.278;22.550;2022-11-27T04:28:45;100409.81;;;2.06;74.32
72855;BME280;60991;51.278;22.550;2022-11-27T04:30:16;100418.00;;;2.03;73.89
72855;BME280;60991;51.278;22.550;2022-11-27T04:31:46;100424.88;;;2.04;73.72
72855;BME280;60991;51.278;22.550;2022-11-27T04:33:16;100419.66;;;2.04;73.59
72855;BME280;60991;51.278;22.550;2022-11-27T04:34:46;100417.81;;;2.04;73.61
72855;BME280;60991;51.278;22.550;2022-11-27T04:36:16;100425.50;;;1.98;74.28
72855;BME280;60991;51.278;22.550;2022-11-27T04:37:47;100420.50;;;1.87;74.44
72855;BME280;60991;51.278;22.550;2022-11-27T04:39:17;100425.44;;;1.90;74.38
72855;BME280;60991;51.278;22.550;2022-11-27T04:40:47;100426.56;;;1.87;73.62
72855;BME280;60991;51.278;22.550;2022-11-27T04:42:17;100417.41;;;1.83;73.93
72855;BME280;60991;51.278;22.550;2022-11-27T04:43:47;100419.91;;;1.93;73.81
72855;BME280;60991;51.278;22.550;2022-11-27T04:45:18;100424.97;;;1.94;73.88
72855;BME280;60991;51.278;22.550;2022-11-27T04:46:48;100423.19;;;1.95;73.70
72855;BME280;60991;51.278;22.550;2022-11-27T04:48:22;100417.25;;;1.85;73.69
72855;BME280;60991;51.278;22.550;2022-11-27T04:49:56;100421.25;;;1.71;73.95
72855;BME280;60991;51.278;22.550;2022-11-27T04:51:27;100424.84;;;1.70;73.65
72855;BME280;60991;51.278;22.550;2022-11-27T04:52:57;100428.84;;;1.82;73.66
72855;BME280;60991;51.278;22.550;2022-11-27T04:54:28;100419.50;;;1.80;74.33
72855;BME280;60991;51.278;22.550;2022-11-27T04:55:58;100420.91;;;1.66;74.38
72855;BME280;60991;51.278;22.550;2022-11-27T04:57:28;100426.03;;;1.76;74.09
72855;BME280;60991;51.278;22.550;2022-11-27T04:58:58;100427.06;;;1.83;74.41
72855;BME280;60991;51.278;22.550;2022-11-27T05:00:29;100427.16;;;1.73;73.78
72855;BME280;60991;51.278;22.550;2022-11-27T05:01:59;100428.72;;;1.84;73.55
72855;BME280;60991;51.278;22.550;2022-11-27T05:03:29;100425.13;;;1.85;74.06
72855;BME280;60991;51.278;22.550;2022-11-27T05:04:59;100428.06;;;1.90;73.68
72855;BME280;60991;51.278;22.550;2022-11-27T05:06:29;100425.81;;;1.95;74.00
72855;BME280;60991;51.278;22.550;2022-11-27T05:08:00;100427.88;;;1.83;73.99
72855;BME280;60991;51.278;22.550;2022-11-27T05:09:30;100429.53;;;1.84;74.07
72855;BME280;60991;51.278;22.550;2022-11-27T05:11:05;100425.94;;;1.85;74.01
72855;BME280;60991;51.278;22.550;2022-11-27T05:12:36;100431.19;;;1.93;73.37
72855;BME280;60991;51.278;22.550;2022-11-27T05:14:06;100437.63;;;1.99;73.46
72855;BME280;60991;51.278;22.550;2022-11-27T05:15:36;100434.31;;;1.97;73.17
72855;BME280;60991;51.278;22.550;2022-11-27T05:17:08;100436.44;;;1.93;73.16
72855;BME280;60991;51.278;22.550;2022-11-27T05:18:38;100429.03;;;1.89;73.35
72855;BME280;60991;51.278;22.550;2022-11-27T05:20:08;100441.34;;;1.96;73.76
72855;BME280;60991;51.278;22.550;2022-11-27T05:21:39;100443.09;;;1.88;73.42
72855;BME280;60991;51.278;22.550;2022-11-27T05:23:10;100441.00;;;1.91;73.97
72855;BME280;60991;51.278;22.550;2022-11-27T05:24:40;100440.81;;;1.85;73.20
72855;BME280;60991;51.278;22.550;2022-11-27T05:26:10;100443.91;;;1.80;73.07
72855;BME280;60991;51.278;22.550;2022-11-27T05:27:41;100445.22;;;1.84;73.31
72855;BME280;60991;51.278;22.550;2022-11-27T05:29:12;100445.72;;;1.88;72.88
72855;BME280;60991;51.278;22.550;2022-11-27T05:30:42;100443.16;;;1.96;73.08
72855;BME280;60991;51.278;22.550;2022-11-27T05:32:13;100437.16;;;2.03;73.19
72855;BME280;60991;51.278;22.550;2022-11-27T05:33:43;100439.59;;;2.05;72.94
72855;BME280;60991;51.278;22.550;2022-11-27T05:35:14;100442.88;;;2.07;72.81
72855;BME280;60991;51.278;22.550;2022-11-27T05:36:44;100443.53;;;2.09;72.15
72855;BME280;60991;51.278;22.550;2022-11-27T05:38:14;100435.41;;;1.86;72.58
72855;BME280;60991;51.278;22.550;2022-11-27T05:39:44;100441.50;;;1.95;72.45
72855;BME280;60991;51.278;22.550;2022-11-27T05:41:15;100440.47;;;1.88;73.17
72855;BME280;60991;51.278;22.550;2022-11-27T05:42:45;100443.47;;;1.93;73.08
72855;BME280;60991;51.278;22.550;2022-11-27T05:44:15;100437.63;;;1.73;73.49
72855;BME280;60991;51.278;22.550;2022-11-27T05:45:45;100445.78;;;1.70;73.41
72855;BME280;60991;51.278;22.550;2022-11-27T05:47:15;100450.41;;;1.76;73.23
72855;BME280;60991;51.278;22.550;2022-11-27T05:48:46;100443.84;;;1.72;73.19
72855;BME280;60991;51.278;22.550;2022-11-27T05:50:16;100457.38;;;1.67;73.69
72855;BME280;60991;51.278;22.550;2022-11-27T05:51:46;100453.47;;;1.71;73.53
72855;BME280;60991;51.278;22.550;2022-11-27T05:53:16;100453.97;;;1.67;73.26
72855;BME280;60991;51.278;22.550;2022-11-27T05:54:46;100459.72;;;1.53;73.33
72855;BME280;60991;51.278;22.550;2022-11-27T05:56:17;100455.78;;;1.49;73.86
72855;BME280;60991;51.278;22.550;2022-11-27T05:57:47;100449.16;;;1.36;74.28
72855;BME280;60991;51.278;22.550;2022-11-27T05:59:18;100457.78;;;1.55;73.85
72855;BME280;60991;51.278;22.550;2022-11-27T06:00:48;100463.59;;;1.66;72.95
72855;BME280;60991;51.278;22.550;2022-11-27T06:02:18;100461.63;;;1.68;73.39
72855;BME280;60991;51.278;22.550;2022-11-27T06:03:49;100467.84;;;1.67;73.08
72855;BME280;60991;51.278;22.550;2022-11-27T06:05:19;100470.38;;;1.77;72.97
72855;BME280;60991;51.278;22.550;2022-11-27T06:06:49;100467.44;;;1.80;72.47
72855;BME280;60991;51.278;22.550;2022-11-27T06:08:19;100465.84;;;1.87;72.98
72855;BME280;60991;51.278;22.550;2022-11-27T06:09:49;100468.66;;;1.94;72.42
72855;BME280;60991;51.278;22.550;2022-11-27T06:11:21;100469.84;;;1.99;72.34
72855;BME280;60991;51.278;22.550;2022-11-27T06:12:51;100466.78;;;2.04;72.01
72855;BME280;60991;51.278;22.550;2022-11-27T06:14:22;100479.38;;;2.08;71.93
72855;BME280;60991;51.278;22.550;2022-11-27T06:15:52;100467.25;;;2.07;71.98
72855;BME280;60991;51.278;22.550;2022-11-27T06:17:22;100468.59;;;2.12;71.51
72855;BME280;60991;51.278;22.550;2022-11-27T06:18:53;100474.66;;;2.12;71.68
72855;BME280;60991;51.278;22.550;2022-11-27T06:20:24;100473.84;;;2.12;71.33
72855;BME280;60991;51.278;22.550;2022-11-27T06:21:54;100475.47;;;2.13;70.97
72855;BME280;60991;51.278;22.550;2022-11-27T06:23:24;100477.59;;;2.09;71.06
72855;BME280;60991;51.278;22.550;2022-11-27T06:24:55;100475.78;;;2.09;71.61
72855;BME280;60991;51.278;22.550;2022-11-27T06:26:27;100472.88;;;2.13;71.15
72855;BME280;60991;51.278;22.550;2022-11-27T06:27:57;100468.13;;;2.16;71.41
72855;BME280;60991;51.278;22.550;2022-11-27T06:29:28;100478.78;;;2.23;71.71
72855;BME280;60991;51.278;22.550;2022-11-27T06:30:58;100468.97;;;2.25;71.07
72855;BME280;60991;51.278;22.550;2022-11-27T06:32:29;100470.78;;;2.24;71.63
72855;BME280;60991;51.278;22.550;2022-11-27T06:34:00;100478.63;;;2.24;71.54
72855;BME280;60991;51.278;22.550;2022-11-27T06:35:30;100481.19;;;2.08;71.34
72855;BME280;60991;51.278;22.550;2022-11-27T06:37:00;100483.19;;;2.14;71.89
72855;BME280;60991;51.278;22.550;2022-11-27T06:38:32;100478.63;;;2.16;71.90
72855;BME280;60991;51.278;22.550;2022-11-27T06:40:03;100489.75;;;2.18;71.66
72855;BME280;60991;51.278;22.550;2022-11-27T06:41:33;100484.00;;;2.15;71.20
72855;BME280;60991;51.278;22.550;2022-11-27T06:43:03;100480.94;;;2.19;71.67
72855;BME280;60991;51.278;22.550;2022-11-27T06:44:33;100479.63;;;2.23;72.11
72855;BME280;60991;51.278;22.550;2022-11-27T06:46:05;100482.97;;;2.07;72.08
72855;BME280;60991;51.278;22.550;2022-11-27T06:47:36;100482.66;;;2.11;71.74
72855;BME280;60991;51.278;22.550;2022-11-27T06:49:06;100489.25;;;2.15;72.26
72855;BME280;60991;51.278;22.550;2022-11-27T06:50:36;100488.44;;;2.14;71.49
72855;BME280;60991;51.278;22.550;2022-11-27T06:52:07;100484.84;;;2.15;72.39
72855;BME280;60991;51.278;22.550;2022-11-27T06:53:37;100490.66;;;2.01;72.31
72855;BME280;60991;51.278;22.550;2022-11-27T06:55:08;100493.31;;;2.09;72.45
72855;BME280;60991;51.278;22.550;2022-11-27T06:56:38;100500.16;;;2.02;72.57
72855;BME280;60991;51.278;22.550;2022-11-27T06:58:09;100495.91;;;2.09;72.67
72855;BME280;60991;51.278;22.550;2022-11-27T06:59:39;100489.03;;;2.08;72.55
72855;BME280;60991;51.278;22.550;2022-11-27T07:01:15;100486.91;;;2.03;72.71
72855;BME280;60991;51.278;22.550;2022-11-27T07:02:45;100493.16;;;2.11;72.27
72855;BME280;60991;51.278;22.550;2022-11-27T07:04:16;100498.91;;;2.14;72.70
72855;BME280;60991;51.278;22.550;2022-11-27T07:05:46;100495.97;;;2.17;72.89
72855;BME280;60991;51.278;22.550;2022-11-27T07:07:16;100489.75;;;2.18;72.18
72855;BME280;60991;51.278;22.550;2022-11-27T07:08:47;100484.38;;;2.20;72.56
72855;BME280;60991;51.278;22.550;2022-11-27T07:10:17;100481.91;;;2.18;72.34
72855;BME280;60991;51.278;22.550;2022-11-27T07:11:47;100482.41;;;2.22;72.25
72855;BME280;60991;51.278;22.550;2022-11-27T07:13:17;100486.34;;;2.26;72.44
72855;BME280;60991;51.278;22.550;2022-11-27T07:14:47;100478.03;;;2.30;72.37
72855;BME280;60991;51.278;22.550;2022-11-27T07:16:18;100484.75;;;2.33;72.54
72855;BME280;60991;51.278;22.550;2022-11-27T07:17:48;100481.16;;;2.34;71.75
72855;BME280;60991;51.278;22.550;2022-11-27T07:19:18;100483.31;;;2.38;71.69
72855;BME280;60991;51.278;22.550;2022-11-27T07:20:52;100475.44;;;2.38;71.95
72855;BME280;60991;51.278;22.550;2022-11-27T07:22:23;100472.50;;;2.41;72.26
72855;BME280;60991;51.278;22.550;2022-11-27T07:23:53;100478.97;;;2.21;72.30
72855;BME280;60991;51.278;22.550;2022-11-27T07:25:24;100468.00;;;2.26;72.11
72855;BME280;60991;51.278;22.550;2022-11-27T07:26:54;100467.06;;;2.35;72.03
72855;BME280;60991;51.278;22.550;2022-11-27T07:28:24;100468.88;;;2.34;72.47
72855;BME280;60991;51.278;22.550;2022-11-27T07:29:54;100472.63;;;2.32;72.12
72855;BME280;60991;51.278;22.550;2022-11-27T07:31:27;100470.16;;;2.22;72.47
72855;BME280;60991;51.278;22.550;2022-11-27T07:32:58;100477.72;;;2.33;72.31
72855;BME280;60991;51.278;22.550;2022-11-27T07:34:28;100472.59;;;2.24;72.40
72855;BME280;60991;51.278;22.550;2022-11-27T07:36:00;100479.63;;;2.23;72.12
72855;BME280;60991;51.278;22.550;2022-11-27T07:37:31;100468.53;;;2.29;72.03
72855;BME280;60991;51.278;22.550;2022-11-27T07:39:01;100473.25;;;2.26;72.52
72855;BME280;60991;51.278;22.550;2022-11-27T07:40:31;100466.38;;;2.25;72.18
72855;BME280;60991;51.278;22.550;2022-11-27T07:42:02;100474.03;;;2.18;72.94
72855;BME280;60991;51.278;22.550;2022-11-27T07:43:33;100468.50;;;2.21;72.35
72855;BME280;60991;51.278;22.550;2022-11-27T07:45:04;100468.72;;;2.02;73.16
72855;BME280;60991;51.278;22.550;2022-11-27T07:46:34;100469.56;;;2.11;72.49
72855;BME280;60991;51.278;22.550;2022-11-27T07:48:05;100472.41;;;2.17;72.91
72855;BME280;60991;51.278;22.550;2022-11-27T07:49:35;100470.03;;;2.06;72.93
72855;BME280;60991;51.278;22.550;2022-11-27T07:51:07;100467.25;;;2.07;73.24
72855;BME280;60991;51.278;22.550;2022-11-27T07:52:37;100466.19;;;2.18;72.68
72855;BME280;60991;51.278;22.550;2022-11-27T07:54:08;100469.63;;;2.19;72.88
72855;BME280;60991;51.278;22.550;2022-11-27T07:55:40;100472.94;;;2.29;73.37
72855;BME280;60991;51.278;22.550;2022-11-27T07:57:10;100478.16;;;2.21;73.05
72855;BME280;60991;51.278;22.550;2022-11-27T07:58:41;100475.41;;;2.30;72.65
72855;BME280;60991;51.278;22.550;2022-11-27T08:00:12;100480.03;;;2.36;72.98
72855;BME280;60991;51.278;22.550;2022-11-27T08:01:42;100475.94;;;2.42;72.94
72855;BME280;60991;51.278;22.550;2022-11-27T08:03:12;100468.28;;;2.49;72.48
72855;BME280;60991;51.278;22.550;2022-11-27T08:04:42;100469.72;;;2.43;72.82
72855;BME280;60991;51.278;22.550;2022-11-27T08:06:21;100468.25;;;2.40;72.39
72855;BME280;60991;51.278;22.550;2022-11-27T08:07:52;100466.13;;;2.44;73.01
72855;BME280;60991;51.278;22.550;2022-11-27T08:09:23;100461.91;;;2.51;72.82
72855;BME280;60991;51.278;22.550;2022-11-27T08:10:53;100468.97;;;2.59;72.34
72855;BME280;60991;51.278;22.550;2022-11-27T08:12:23;100468.78;;;2.52;72.80
72855;BME280;60991;51.278;22.550;2022-11-27T08:13:59;100465.63;;;2.40;72.56
72855;BME280;60991;51.278;22.550;2022-11-27T08:15:30;100472.16;;;2.36;72.42
72855;BME280;60991;51.278;22.550;2022-11-27T08:17:00;100470.69;;;2.42;72.39
72855;BME280;60991;51.278;22.550;2022-11-27T08:18:30;100464.47;;;2.43;72.83
72855;BME280;60991;51.278;22.550;2022-11-27T08:20:01;100465.59;;;2.32;73.05
72855;BME280;60991;51.278;22.550;2022-11-27T08:21:31;100466.63;;;2.39;72.79
72855;BME280;60991;51.278;22.550;2022-11-27T08:23:01;100458.50;;;2.25;73.10